sensor_id;sensor_type;location;lat;lon;timestamp;temperature;humidity
3136;DHT22;1578;47.658;9.922;2023-05-07T00:02:02;11.40;92.40
3136;DHT22;1578;47.658;9.922;2023-05-07T00:04:29;11.30;92.60
3136;DHT22;1578;47.658;9.922;2023-05-07T00:07:01;11.30;92.40
3136;DHT22;1578;47.658;9.922;2023-05-07T00:09:27;11.30;93.30
3136;DHT22;1578;47.658;9.922;2023-05-07T00:11:52;11.20;93.00
3136;DHT22;1578;47.658;9.922;2023-05-07T00:14:18;11.20;92.80
3136;DHT22;1578;47.658;9.922;2023-05-07T00:16:43;11.30;94.30
3136;DHT22;1578;47.658;9.922;2023-05-07T00:19:09;11.40;93.70
3136;DHT22;1578;47.658;9.922;2023-05-07T00:21:35;11.40;93.40
3136;DHT22;1578;47.658;9.922;2023-05-07T00:24:01;11.40;93.20
3136;DHT22;1578;47.658;9.922;2023-05-07T00:26:26;11.40;92.80
3136;DHT22;1578;47.658;9.922;2023-05-07T00:28:52;11.60;92.30
3136;DHT22;1578;47.658;9.922;2023-05-07T00:31:18;11.50;91.40
3136;DHT22;1578;47.658;9.922;2023-05-07T00:33:44;11.50;91.70
3136;DHT22;1578;47.658;9.922;2023-05-07T00:36:09;11.50;91.90
3136;DHT22;1578;47.658;9.922;2023-05-07T00:38:35;11.40;91.50
3136;DHT22;1578;47.658;9.922;2023-05-07T00:41:01;11.40;91.80
3136;DHT22;1578;47.658;9.922;2023-05-07T00:43:27;11.30;92.10
3136;DHT22;1578;47.658;9.922;2023-05-07T00:45:53;11.30;92.40
3136;DHT22;1578;47.658;9.922;2023-05-07T00:48:19;11.30;92.60
3136;DHT22;1578;47.658;9.922;2023-05-07T00:50:45;11.30;92.70
3136;DHT22;1578;47.658;9.922;2023-05-07T00:53:12;11.30;92.30
3136;DHT22;1578;47.658;9.922;2023-05-07T00:55:38;11.30;92.10
3136;DHT22;1578;47.658;9.922;2023-05-07T00:58:04;11.30;91.70
3136;DHT22;1578;47.658;9.922;2023-05-07T01:00:30;11.10;91.70
3136;DHT22;1578;47.658;9.922;2023-05-07T01:02:55;11.10;92.70
3136;DHT22;1578;47.658;9.922;2023-05-07T01:05:23;11.00;93.10
3136;DHT22;1578;47.658;9.922;2023-05-07T01:07:50;11.00;93.10
3136;DHT22;1578;47.658;9.922;2023-05-07T01:10:17;10.90;93.00
3136;DHT22;1578;47.658;9.922;2023-05-07T01:12:44;11.00;93.20
3136;DHT22;1578;47.658;9.922;2023-05-07T01:15:10;10.90;93.10
3136;DHT22;1578;47.658;9.922;2023-05-07T01:17:40;10.90;93.70
3136;DHT22;1578;47.658;9.922;2023-05-07T01:20:07;10.90;93.60
3136;DHT22;1578;47.658;9.922;2023-05-07T01:22:34;11.00;93.60
3136;DHT22;1578;47.658;9.922;2023-05-07T01:25:02;11.10;93.50
3136;DHT22;1578;47.658;9.922;2023-05-07T01:27:28;11.00;94.00
3136;DHT22;1578;47.658;9.922;2023-05-07T01:29:54;11.00;94.80
3136;DHT22;1578;47.658;9.922;2023-05-07T01:32:27;11.00;94.40
3136;DHT22;1578;47.658;9.922;2023-05-07T01:34:54;11.10;94.40
3136;DHT22;1578;47.658;9.922;2023-05-07T01:37:21;11.10;94.10
3136;DHT22;1578;47.658;9.922;2023-05-07T01:39:48;11.10;94.30
3136;DHT22;1578;47.658;9.922;2023-05-07T01:42:14;11.10;94.30
3136;DHT22;1578;47.658;9.922;2023-05-07T01:44:40;11.10;94.10
3136;DHT22;1578;47.658;9.922;2023-05-07T01:47:06;11.10;94.70
3136;DHT22;1578;47.658;9.922;2023-05-07T01:49:31;11.10;94.10
3136;DHT22;1578;47.658;9.922;2023-05-07T01:51:58;11.10;94.50
3136;DHT22;1578;47.658;9.922;2023-05-07T01:54:27;11.00;94.80
3136;DHT22;1578;47.658;9.922;2023-05-07T01:56:57;11.00;95.00
3136;DHT22;1578;47.658;9.922;2023-05-07T01:59:22;11.00;94.70
3136;DHT22;1578;47.658;9.922;2023-05-07T02:01:48;11.00;94.90
3136;DHT22;1578;47.658;9.922;2023-05-07T02:04:14;11.00;95.10
3136;DHT22;1578;47.658;9.922;2023-05-07T02:06:40;11.10;95.10
3136;DHT22;1578;47.658;9.922;2023-05-07T02:09:05;11.10;95.30
3136;DHT22;1578;47.658;9.922;2023-05-07T02:11:31;11.00;95.30
3136;DHT22;1578;47.658;9.922;2023-05-07T02:13:57;11.10;95.70
3136;DHT22;1578;47.658;9.922;2023-05-07T02:16:22;11.10;95.70
3136;DHT22;1578;47.658;9.922;2023-05-07T02:18:49;11.20;95.70
3136;DHT22;1578;47.658;9.922;2023-05-07T02:21:15;11.10;95.50
3136;DHT22;1578;47.658;9.922;2023-05-07T02:23:40;11.10;95.30
3136;DHT22;1578;47.658;9.922;2023-05-07T02:26:06;11.10;95.10
3136;DHT22;1578;47.658;9.922;2023-05-07T02:28:31;11.10;94.90
3136;DHT22;1578;47.658;9.922;2023-05-07T02:30:57;11.10;94.50
3136;DHT22;1578;47.658;9.922;2023-05-07T02:33:26;11.10;95.20
3136;DHT22;1578;47.658;9.922;2023-05-07T02:35:52;11.10;94.50
3136;DHT22;1578;47.658;9.922;2023-05-07T02:38:17;11.10;94.30
3136;DHT22;1578;47.658;9.922;2023-05-07T02:40:43;11.10;94.70
3136;DHT22;1578;47.658;9.922;2023-05-07T02:43:09;11.10;93.90
3136;DHT22;1578;47.658;9.922;2023-05-07T02:45:35;11.00;93.50
3136;DHT22;1578;47.658;9.922;2023-05-07T02:48:03;11.00;94.10
3136;DHT22;1578;47.658;9.922;2023-05-07T02:50:29;10.90;93.60
3136;DHT22;1578;47.658;9.922;2023-05-07T02:52:55;10.80;94.00
3136;DHT22;1578;47.658;9.922;2023-05-07T02:55:20;10.80;94.30
3136;DHT22;1578;47.658;9.922;2023-05-07T02:57:46;10.80;94.80
3136;DHT22;1578;47.658;9.922;2023-05-07T03:00:14;10.80;94.30
3136;DHT22;1578;47.658;9.922;2023-05-07T03:02:40;10.80;95.20
3136;DHT22;1578;47.658;9.922;2023-05-07T03:05:06;10.90;95.00
3136;DHT22;1578;47.658;9.922;2023-05-07T03:07:32;10.90;95.20
3136;DHT22;1578;47.658;9.922;2023-05-07T03:09:57;11.00;94.50
3136;DHT22;1578;47.658;9.922;2023-05-07T03:12:23;10.80;93.10
3136;DHT22;1578;47.658;9.922;2023-05-07T03:14:48;10.70;93.00
3136;DHT22;1578;47.658;9.922;2023-05-07T03:17:14;10.50;93.30
3136;DHT22;1578;47.658;9.922;2023-05-07T03:19:41;10.40;93.80
3136;DHT22;1578;47.658;9.922;2023-05-07T03:22:07;10.40;94.30
3136;DHT22;1578;47.658;9.922;2023-05-07T03:24:32;10.40;94.00
3136;DHT22;1578;47.658;9.922;2023-05-07T03:26:58;10.40;93.50
3136;DHT22;1578;47.658;9.922;2023-05-07T03:29:24;10.30;92.90
3136;DHT22;1578;47.658;9.922;2023-05-07T03:31:49;10.30;93.20
3136;DHT22;1578;47.658;9.922;2023-05-07T03:34:15;10.30;92.90
3136;DHT22;1578;47.658;9.922;2023-05-07T03:36:42;10.20;92.90
3136;DHT22;1578;47.658;9.922;2023-05-07T03:39:08;10.10;93.90
3136;DHT22;1578;47.658;9.922;2023-05-07T03:41:33;10.20;94.00
3136;DHT22;1578;47.658;9.922;2023-05-07T03:43:59;10.20;93.50
3136;DHT22;1578;47.658;9.922;2023-05-07T03:46:25;10.20;93.80
3136;DHT22;1578;47.658;9.922;2023-05-07T03:48:51;10.10;93.30
3136;DHT22;1578;47.658;9.922;2023-05-07T03:51:17;10.00;93.80
3136;DHT22;1578;47.658;9.922;2023-05-07T03:53:43;9.80;95.00
3136;DHT22;1578;47.658;9.922;2023-05-07T03:56:09;9.70;96.00
3136;DHT22;1578;47.658;9.922;2023-05-07T03:58:34;9.70;96.20
3136;DHT22;1578;47.658;9.922;2023-05-07T04:01:00;9.70;96.90
3136;DHT22;1578;47.658;9.922;2023-05-07T04:03:26;9.70;96.30
3136;DHT22;1578;47.658;9.922;2023-05-07T04:05:52;9.80;96.00
3136;DHT22;1578;47.658;9.922;2023-05-07T04:08:17;9.80;95.10
3136;DHT22;1578;47.658;9.922;2023-05-07T04:10:43;9.70;95.30
3136;DHT22;1578;47.658;9.922;2023-05-07T04:13:08;9.50;94.90
3136;DHT22;1578;47.658;9.922;2023-05-07T04:15:35;9.50;95.50
3136;DHT22;1578;47.658;9.922;2023-05-07T04:18:01;9.50;96.40
3136;DHT22;1578;47.658;9.922;2023-05-07T04:20:27;9.60;96.40
3136;DHT22;1578;47.658;9.922;2023-05-07T04:22:52;9.60;96.50
3136;DHT22;1578;47.658;9.922;2023-05-07T04:25:18;9.70;96.20
3136;DHT22;1578;47.658;9.922;2023-05-07T04:27:43;9.60;96.40
3136;DHT22;1578;47.658;9.922;2023-05-07T04:30:09;9.70;96.90
3136;DHT22;1578;47.658;9.922;2023-05-07T04:32:35;9.70;96.50
3136;DHT22;1578;47.658;9.922;2023-05-07T04:35:03;9.70;96.80
3136;DHT22;1578;47.658;9.922;2023-05-07T04:37:28;9.80;96.60
3136;DHT22;1578;47.658;9.922;2023-05-07T04:39:54;9.80;96.80
3136;DHT22;1578;47.658;9.922;2023-05-07T04:42:19;9.70;96.90
3136;DHT22;1578;47.658;9.922;2023-05-07T04:44:45;9.70;96.90
3136;DHT22;1578;47.658;9.922;2023-05-07T04:47:11;9.70;96.80
3136;DHT22;1578;47.658;9.922;2023-05-07T04:49:38;9.60;96.80
3136;DHT22;1578;47.658;9.922;2023-05-07T04:52:04;9.60;96.80
3136;DHT22;1578;47.658;9.922;2023-05-07T04:54:29;9.60;97.40
3136;DHT22;1578;47.658;9.922;2023-05-07T04:56:55;9.70;98.00
3136;DHT22;1578;47.658;9.922;2023-05-07T04:59:21;9.80;98.80
3136;DHT22;1578;47.658;9.922;2023-05-07T05:01:47;10.00;98.80
3136;DHT22;1578;47.658;9.922;2023-05-07T05:04:12;10.10;98.80
3136;DHT22;1578;47.658;9.922;2023-05-07T05:06:39;10.20;99.70
3136;DHT22;1578;47.658;9.922;2023-05-07T05:09:04;10.50;99.90
3136;DHT22;1578;47.658;9.922;2023-05-07T05:11:31;10.80;99.90
3136;DHT22;1578;47.658;9.922;2023-05-07T05:13:56;11.20;99.90
3136;DHT22;1578;47.658;9.922;2023-05-07T05:16:22;11.60;99.90
3136;DHT22;1578;47.658;9.922;2023-05-07T05:18:48;12.00;98.00
3136;DHT22;1578;47.658;9.922;2023-05-07T05:21:13;12.30;95.00
3136;DHT22;1578;47.658;9.922;2023-05-07T05:23:39;12.60;91.00
3136;DHT22;1578;47.658;9.922;2023-05-07T05:26:05;12.80;87.90
3136;DHT22;1578;47.658;9.922;2023-05-07T05:28:30;12.90;87.00
3136;DHT22;1578;47.658;9.922;2023-05-07T05:30:57;13.10;84.70
3136;DHT22;1578;47.658;9.922;2023-05-07T05:33:23;13.20;83.60
3136;DHT22;1578;47.658;9.922;2023-05-07T05:35:49;13.30;82.80
3136;DHT22;1578;47.658;9.922;2023-05-07T05:38:15;13.40;82.00
3136;DHT22;1578;47.658;9.922;2023-05-07T05:40:41;13.60;80.80
3136;DHT22;1578;47.658;9.922;2023-05-07T05:43:06;13.80;80.30
3136;DHT22;1578;47.658;9.922;2023-05-07T05:45:32;14.00;77.80
3136;DHT22;1578;47.658;9.922;2023-05-07T05:47:58;14.20;78.20
3136;DHT22;1578;47.658;9.922;2023-05-07T05:50:23;14.40;78.40
3136;DHT22;1578;47.658;9.922;2023-05-07T05:52:49;14.70;77.90
3136;DHT22;1578;47.658;9.922;2023-05-07T05:55:14;14.90;76.00
3136;DHT22;1578;47.658;9.922;2023-05-07T05:57:40;15.20;74.20
3136;DHT22;1578;47.658;9.922;2023-05-07T06:00:07;15.50;71.60
3136;DHT22;1578;47.658;9.922;2023-05-07T06:02:33;15.70;64.30
3136;DHT22;1578;47.658;9.922;2023-05-07T06:04:59;15.80;61.10
3136;DHT22;1578;47.658;9.922;2023-05-07T06:07:24;15.80;59.80
3136;DHT22;1578;47.658;9.922;2023-05-07T06:09:50;15.90;62.90
3136;DHT22;1578;47.658;9.922;2023-05-07T06:12:16;15.90;61.70
3136;DHT22;1578;47.658;9.922;2023-05-07T06:14:44;16.10;60.10
3136;DHT22;1578;47.658;9.922;2023-05-07T06:17:10;16.20;60.20
3136;DHT22;1578;47.658;9.922;2023-05-07T06:19:35;16.40;57.00
3136;DHT22;1578;47.658;9.922;2023-05-07T06:22:01;16.40;54.70
3136;DHT22;1578;47.658;9.922;2023-05-07T06:24:28;16.50;54.40
3136;DHT22;1578;47.658;9.922;2023-05-07T06:26:54;16.70;55.10
3136;DHT22;1578;47.658;9.922;2023-05-07T06:29:20;16.80;52.70
3136;DHT22;1578;47.658;9.922;2023-05-07T06:31:45;16.90;51.70
3136;DHT22;1578;47.658;9.922;2023-05-07T06:34:11;16.90;50.30
3136;DHT22;1578;47.658;9.922;2023-05-07T06:36:40;16.90;51.10
3136;DHT22;1578;47.658;9.922;2023-05-07T06:39:06;17.00;52.40
3136;DHT22;1578;47.658;9.922;2023-05-07T06:41:31;17.20;48.70
3136;DHT22;1578;47.658;9.922;2023-05-07T06:43:57;17.30;49.60
3136;DHT22;1578;47.658;9.922;2023-05-07T06:46:23;17.50;50.40
3136;DHT22;1578;47.658;9.922;2023-05-07T06:48:48;17.80;50.60
3136;DHT22;1578;47.658;9.922;2023-05-07T06:51:14;17.90;45.10
3136;DHT22;1578;47.658;9.922;2023-05-07T06:53:39;18.10;47.80
3136;DHT22;1578;47.658;9.922;2023-05-07T06:56:06;18.40;37.60
3136;DHT22;1578;47.658;9.922;2023-05-07T06:58:31;18.40;40.00
3136;DHT22;1578;47.658;9.922;2023-05-07T07:00:57;18.50;40.70
3136;DHT22;1578;47.658;9.922;2023-05-07T07:03:23;18.50;39.80
3136;DHT22;1578;47.658;9.922;2023-05-07T07:05:52;18.60;40.50
3136;DHT22;1578;47.658;9.922;2023-05-07T07:08:18;18.80;33.90
3136;DHT22;1578;47.658;9.922;2023-05-07T07:10:43;19.00;38.80
3136;DHT22;1578;47.658;9.922;2023-05-07T07:13:09;19.10;33.20
3136;DHT22;1578;47.658;9.922;2023-05-07T07:15:34;19.20;34.50
3136;DHT22;1578;47.658;9.922;2023-05-07T07:18:00;19.20;34.70
3136;DHT22;1578;47.658;9.922;2023-05-07T07:20:26;19.30;28.80
3136;DHT22;1578;47.658;9.922;2023-05-07T07:22:51;19.10;30.90
3136;DHT22;1578;47.658;9.922;2023-05-07T07:25:17;19.20;33.20
3136;DHT22;1578;47.658;9.922;2023-05-07T07:27:42;19.40;29.50
3136;DHT22;1578;47.658;9.922;2023-05-07T07:30:08;19.20;30.50
3136;DHT22;1578;47.658;9.922;2023-05-07T07:32:34;19.20;30.50
3136;DHT22;1578;47.658;9.922;2023-05-07T07:35:00;19.10;30.90
3136;DHT22;1578;47.658;9.922;2023-05-07T07:37:26;19.20;35.00
3136;DHT22;1578;47.658;9.922;2023-05-07T07:39:52;19.20;34.00
3136;DHT22;1578;47.658;9.922;2023-05-07T07:42:18;19.20;32.90
3136;DHT22;1578;47.658;9.922;2023-05-07T07:44:43;19.20;29.10
3136;DHT22;1578;47.658;9.922;2023-05-07T07:47:09;19.20;29.70
3136;DHT22;1578;47.658;9.922;2023-05-07T07:49:35;18.90;29.00
3136;DHT22;1578;47.658;9.922;2023-05-07T07:52:01;18.90;31.10
3136;DHT22;1578;47.658;9.922;2023-05-07T07:54:27;18.90;28.10
3136;DHT22;1578;47.658;9.922;2023-05-07T07:56:52;19.00;28.80
3136;DHT22;1578;47.658;9.922;2023-05-07T07:59:18;19.00;28.50
3136;DHT22;1578;47.658;9.922;2023-05-07T08:01:44;19.00;29.40
3136;DHT22;1578;47.658;9.922;2023-05-07T08:04:10;19.10;28.80
3136;DHT22;1578;47.658;9.922;2023-05-07T08:06:36;19.00;31.00
3136;DHT22;1578;47.658;9.922;2023-05-07T08:09:03;19.00;33.30
3136;DHT22;1578;47.658;9.922;2023-05-07T08:11:29;19.00;30.00
3136;DHT22;1578;47.658;9.922;2023-05-07T08:13:56;19.00;37.70
3136;DHT22;1578;47.658;9.922;2023-05-07T08:16:21;19.00;29.20
3136;DHT22;1578;47.658;9.922;2023-05-07T08:18:47;18.70;32.50
3136;DHT22;1578;47.658;9.922;2023-05-07T08:21:13;18.60;30.00
3136;DHT22;1578;47.658;9.922;2023-05-07T08:23:38;18.30;29.40
3136;DHT22;1578;47.658;9.922;2023-05-07T08:26:04;18.10;32.90
3136;DHT22;1578;47.658;9.922;2023-05-07T08:28:30;18.10;33.40
3136;DHT22;1578;47.658;9.922;2023-05-07T08:30:55;18.10;35.20
3136;DHT22;1578;47.658;9.922;2023-05-07T08:33:26;18.20;37.70
3136;DHT22;1578;47.658;9.922;2023-05-07T08:35:52;18.60;30.00
3136;DHT22;1578;47.658;9.922;2023-05-07T08:38:17;18.60;34.50
3136;DHT22;1578;47.658;9.922;2023-05-07T08:40:43;18.80;27.30
3136;DHT22;1578;47.658;9.922;2023-05-07T08:43:12;18.90;32.70
3136;DHT22;1578;47.658;9.922;2023-05-07T08:45:39;19.10;28.50
3136;DHT22;1578;47.658;9.922;2023-05-07T08:48:09;19.20;22.50
3136;DHT22;1578;47.658;9.922;2023-05-07T08:50:39;19.30;24.80
3136;DHT22;1578;47.658;9.922;2023-05-07T08:53:05;19.20;21.40
3136;DHT22;1578;47.658;9.922;2023-05-07T08:55:32;19.20;23.80
3136;DHT22;1578;47.658;9.922;2023-05-07T08:57:59;19.10;22.50
3136;DHT22;1578;47.658;9.922;2023-05-07T09:00:24;19.20;23.60
3136;DHT22;1578;47.658;9.922;2023-05-07T09:02:50;19.40;24.40
3136;DHT22;1578;47.658;9.922;2023-05-07T09:05:16;19.40;20.50
3136;DHT22;1578;47.658;9.922;2023-05-07T09:07:41;19.20;19.40
3136;DHT22;1578;47.658;9.922;2023-05-07T09:10:07;19.20;23.00
3136;DHT22;1578;47.658;9.922;2023-05-07T09:12:33;19.40;24.00
3136;DHT22;1578;47.658;9.922;2023-05-07T09:15:00;19.40;18.00
3136;DHT22;1578;47.658;9.922;2023-05-07T09:17:26;19.90;20.70
3136;DHT22;1578;47.658;9.922;2023-05-07T09:19:53;20.10;18.40
3136;DHT22;1578;47.658;9.922;2023-05-07T09:22:18;19.90;16.40
3136;DHT22;1578;47.658;9.922;2023-05-07T09:24:48;20.00;20.00
3136;DHT22;1578;47.658;9.922;2023-05-07T09:27:15;19.90;16.90
3136;DHT22;1578;47.658;9.922;2023-05-07T09:29:41;20.10;18.20
3136;DHT22;1578;47.658;9.922;2023-05-07T09:32:08;20.20;18.80
3136;DHT22;1578;47.658;9.922;2023-05-07T09:34:34;19.90;19.20
3136;DHT22;1578;47.658;9.922;2023-05-07T09:37:05;20.10;19.90
3136;DHT22;1578;47.658;9.922;2023-05-07T09:39:44;20.00;16.80
3136;DHT22;1578;47.658;9.922;2023-05-07T09:42:10;20.20;16.70
3136;DHT22;1578;47.658;9.922;2023-05-07T09:44:37;20.20;19.20
3136;DHT22;1578;47.658;9.922;2023-05-07T09:47:06;20.50;17.00
3136;DHT22;1578;47.658;9.922;2023-05-07T09:49:35;20.70;17.10
3136;DHT22;1578;47.658;9.922;2023-05-07T09:52:02;20.80;19.90
3136;DHT22;1578;47.658;9.922;2023-05-07T09:54:29;20.80;17.40
3136;DHT22;1578;47.658;9.922;2023-05-07T09:56:56;20.60;19.40
3136;DHT22;1578;47.658;9.922;2023-05-07T09:59:22;20.40;20.70
3136;DHT22;1578;47.658;9.922;2023-05-07T10:01:49;20.20;18.30
3136;DHT22;1578;47.658;9.922;2023-05-07T10:04:17;20.30;17.90
3136;DHT22;1578;47.658;9.922;2023-05-07T10:06:44;20.60;15.90
3136;DHT22;1578;47.658;9.922;2023-05-07T10:09:11;20.60;16.50
3136;DHT22;1578;47.658;9.922;2023-05-07T10:11:38;20.90;15.80
3136;DHT22;1578;47.658;9.922;2023-05-07T10:14:05;21.10;15.60
3136;DHT22;1578;47.658;9.922;2023-05-07T10:16:32;21.00;14.90
3136;DHT22;1578;47.658;9.922;2023-05-07T10:18:58;20.60;15.80
3136;DHT22;1578;47.658;9.922;2023-05-07T10:21:27;20.50;18.70
3136;DHT22;1578;47.658;9.922;2023-05-07T10:24:19;20.70;17.30
3136;DHT22;1578;47.658;9.922;2023-05-07T10:26:48;20.80;21.30
3136;DHT22;1578;47.658;9.922;2023-05-07T10:34:54;20.70;20.90
3136;DHT22;1578;47.658;9.922;2023-05-07T10:37:22;21.00;22.50
3136;DHT22;1578;47.658;9.922;2023-05-07T10:39:49;20.60;17.20
3136;DHT22;1578;47.658;9.922;2023-05-07T10:42:15;20.30;19.40
3136;DHT22;1578;47.658;9.922;2023-05-07T10:44:41;20.60;20.20
3136;DHT22;1578;47.658;9.922;2023-05-07T10:47:15;20.40;18.20
3136;DHT22;1578;47.658;9.922;2023-05-07T10:52:15;20.70;18.80
3136;DHT22;1578;47.658;9.922;2023-05-07T10:54:42;20.90;18.70
3136;DHT22;1578;47.658;9.922;2023-05-07T10:57:34;20.90;16.40
3136;DHT22;1578;47.658;9.922;2023-05-07T11:05:32;21.10;17.60
3136;DHT22;1578;47.658;9.922;2023-05-07T11:07:59;21.70;14.50
3136;DHT22;1578;47.658;9.922;2023-05-07T11:10:51;21.90;14.20
3136;DHT22;1578;47.658;9.922;2023-05-07T11:13:18;22.00;13.90
3136;DHT22;1578;47.658;9.922;2023-05-07T11:15:47;21.70;14.60
3136;DHT22;1578;47.658;9.922;2023-05-07T11:18:17;22.00;13.50
3136;DHT22;1578;47.658;9.922;2023-05-07T11:26:04;21.60;18.80
3136;DHT22;1578;47.658;9.922;2023-05-07T11:28:33;21.80;14.60
3136;DHT22;1578;47.658;9.922;2023-05-07T11:31:02;21.40;13.80
3136;DHT22;1578;47.658;9.922;2023-05-07T11:33:29;21.20;18.20
3136;DHT22;1578;47.658;9.922;2023-05-07T11:35:56;21.50;17.60
3136;DHT22;1578;47.658;9.922;2023-05-07T11:38:24;22.00;16.00
3136;DHT22;1578;47.658;9.922;2023-05-07T11:40:56;22.10;13.10
3136;DHT22;1578;47.658;9.922;2023-05-07T11:43:22;21.70;13.70
3136;DHT22;1578;47.658;9.922;2023-05-07T11:45:48;21.60;16.40
3136;DHT22;1578;47.658;9.922;2023-05-07T11:48:15;22.00;15.30
3136;DHT22;1578;47.658;9.922;2023-05-07T11:50:59;22.40;13.30
3136;DHT22;1578;47.658;9.922;2023-05-07T11:53:26;22.70;11.60
3136;DHT22;1578;47.658;9.922;2023-05-07T11:55:53;23.10;11.30
3136;DHT22;1578;47.658;9.922;2023-05-07T11:58:23;22.60;10.30
3136;DHT22;1578;47.658;9.922;2023-05-07T12:00:53;22.20;9.70
3136;DHT22;1578;47.658;9.922;2023-05-07T12:03:19;21.90;10.30
3136;DHT22;1578;47.658;9.922;2023-05-07T12:05:46;22.00;13.60
3136;DHT22;1578;47.658;9.922;2023-05-07T12:08:20;22.20;13.30
3136;DHT22;1578;47.658;9.922;2023-05-07T12:10:48;23.10;12.90
3136;DHT22;1578;47.658;9.922;2023-05-07T12:13:25;23.90;9.10
3136;DHT22;1578;47.658;9.922;2023-05-07T12:15:55;24.30;7.90
3136;DHT22;1578;47.658;9.922;2023-05-07T12:18:22;24.50;6.20
3136;DHT22;1578;47.658;9.922;2023-05-07T12:20:48;24.50;6.50
3136;DHT22;1578;47.658;9.922;2023-05-07T12:23:14;24.40;6.80
3136;DHT22;1578;47.658;9.922;2023-05-07T12:25:42;24.20;5.50
3136;DHT22;1578;47.658;9.922;2023-05-07T12:28:18;24.30;7.00
3136;DHT22;1578;47.658;9.922;2023-05-07T12:30:45;24.00;5.40
3136;DHT22;1578;47.658;9.922;2023-05-07T12:33:12;23.40;7.40
3136;DHT22;1578;47.658;9.922;2023-05-07T12:35:40;23.60;7.40
3136;DHT22;1578;47.658;9.922;2023-05-07T12:38:13;23.50;9.00
3136;DHT22;1578;47.658;9.922;2023-05-07T12:40:46;23.40;8.80
3136;DHT22;1578;47.658;9.922;2023-05-07T12:43:26;23.90;6.00
3136;DHT22;1578;47.658;9.922;2023-05-07T12:45:54;23.50;5.10
3136;DHT22;1578;47.658;9.922;2023-05-07T12:48:21;23.30;7.60
3136;DHT22;1578;47.658;9.922;2023-05-07T12:50:53;24.10;9.30
3136;DHT22;1578;47.658;9.922;2023-05-07T12:53:24;24.60;6.90
3136;DHT22;1578;47.658;9.922;2023-05-07T12:55:57;24.70;4.60
3136;DHT22;1578;47.658;9.922;2023-05-07T12:58:26;25.00;6.90
3136;DHT22;1578;47.658;9.922;2023-05-07T13:00:54;24.90;7.50
3136;DHT22;1578;47.658;9.922;2023-05-07T13:03:30;24.70;4.30
3136;DHT22;1578;47.658;9.922;2023-05-07T13:06:01;24.30;5.10
3136;DHT22;1578;47.658;9.922;2023-05-07T13:08:28;23.90;5.80
3136;DHT22;1578;47.658;9.922;2023-05-07T13:10:53;23.40;6.30
3136;DHT22;1578;47.658;9.922;2023-05-07T13:13:20;23.70;5.00
3136;DHT22;1578;47.658;9.922;2023-05-07T13:15:46;24.10;5.50
3136;DHT22;1578;47.658;9.922;2023-05-07T13:18:12;24.20;3.90
3136;DHT22;1578;47.658;9.922;2023-05-07T13:20:38;23.90;3.60
3136;DHT22;1578;47.658;9.922;2023-05-07T13:23:03;23.80;5.20
3136;DHT22;1578;47.658;9.922;2023-05-07T13:25:31;23.80;5.60
3136;DHT22;1578;47.658;9.922;2023-05-07T13:27:59;24.00;3.80
3136;DHT22;1578;47.658;9.922;2023-05-07T13:30:25;24.20;4.90
3136;DHT22;1578;47.658;9.922;2023-05-07T13:32:53;24.20;4.10
3136;DHT22;1578;47.658;9.922;2023-05-07T13:35:20;24.20;3.70
3136;DHT22;1578;47.658;9.922;2023-05-07T13:37:46;23.60;4.60
3136;DHT22;1578;47.658;9.922;2023-05-07T13:40:13;23.60;4.50
3136;DHT22;1578;47.658;9.922;2023-05-07T13:42:39;23.80;5.00
3136;DHT22;1578;47.658;9.922;2023-05-07T13:45:05;24.00;4.10
3136;DHT22;1578;47.658;9.922;2023-05-07T13:47:31;23.90;3.60
3136;DHT22;1578;47.658;9.922;2023-05-07T13:49:57;23.90;6.00
3136;DHT22;1578;47.658;9.922;2023-05-07T13:52:22;24.10;3.00
3136;DHT22;1578;47.658;9.922;2023-05-07T13:54:48;24.30;3.20
3136;DHT22;1578;47.658;9.922;2023-05-07T13:57:13;24.30;2.60
3136;DHT22;1578;47.658;9.922;2023-05-07T13:59:40;23.70;3.90
3136;DHT22;1578;47.658;9.922;2023-05-07T14:02:07;23.50;5.30
3136;DHT22;1578;47.658;9.922;2023-05-07T14:04:34;23.70;6.40
3136;DHT22;1578;47.658;9.922;2023-05-07T14:07:00;23.70;4.40
3136;DHT22;1578;47.658;9.922;2023-05-07T14:09:26;23.60;7.10
3136;DHT22;1578;47.658;9.922;2023-05-07T14:11:52;23.60;5.70
3136;DHT22;1578;47.658;9.922;2023-05-07T14:14:18;23.50;3.70
3136;DHT22;1578;47.658;9.922;2023-05-07T14:16:44;23.50;5.50
3136;DHT22;1578;47.658;9.922;2023-05-07T14:19:11;23.50;4.90
3136;DHT22;1578;47.658;9.922;2023-05-07T14:21:37;23.50;4.70
3136;DHT22;1578;47.658;9.922;2023-05-07T14:24:03;23.50;4.60
3136;DHT22;1578;47.658;9.922;2023-05-07T14:26:28;23.30;2.60
3136;DHT22;1578;47.658;9.922;2023-05-07T14:28:54;23.40;2.20
3136;DHT22;1578;47.658;9.922;2023-05-07T14:31:22;23.70;1.40
3136;DHT22;1578;47.658;9.922;2023-05-07T14:33:48;23.90;1.40
3136;DHT22;1578;47.658;9.922;2023-05-07T14:36:17;24.20;1.60
3136;DHT22;1578;47.658;9.922;2023-05-07T14:38:45;24.30;5.30
3136;DHT22;1578;47.658;9.922;2023-05-07T14:41:11;24.20;2.40
3136;DHT22;1578;47.658;9.922;2023-05-07T14:43:37;23.60;4.00
3136;DHT22;1578;47.658;9.922;2023-05-07T14:46:02;23.30;2.90
3136;DHT22;1578;47.658;9.922;2023-05-07T14:48:28;23.00;4.20
3136;DHT22;1578;47.658;9.922;2023-05-07T14:50:54;23.00;4.20
3136;DHT22;1578;47.658;9.922;2023-05-07T14:53:20;23.10;2.80
3136;DHT22;1578;47.658;9.922;2023-05-07T14:55:46;23.10;4.30
3136;DHT22;1578;47.658;9.922;2023-05-07T14:58:12;23.10;3.50
3136;DHT22;1578;47.658;9.922;2023-05-07T15:00:38;23.10;3.10
3136;DHT22;1578;47.658;9.922;2023-05-07T15:03:08;23.20;1.90
3136;DHT22;1578;47.658;9.922;2023-05-07T15:05:35;23.30;1.60
3136;DHT22;1578;47.658;9.922;2023-05-07T15:08:01;23.30;2.90
3136;DHT22;1578;47.658;9.922;2023-05-07T15:10:27;23.40;4.00
3136;DHT22;1578;47.658;9.922;2023-05-07T15:12:53;23.40;1.20
3136;DHT22;1578;47.658;9.922;2023-05-07T15:15:18;23.40;1.60
3136;DHT22;1578;47.658;9.922;2023-05-07T15:17:44;23.40;2.80
3136;DHT22;1578;47.658;9.922;2023-05-07T15:20:10;23.40;1.20
3136;DHT22;1578;47.658;9.922;2023-05-07T15:22:36;23.30;3.60
3136;DHT22;1578;47.658;9.922;2023-05-07T15:25:04;23.10;5.90
3136;DHT22;1578;47.658;9.922;2023-05-07T15:27:31;22.80;6.00
3136;DHT22;1578;47.658;9.922;2023-05-07T15:29:57;22.30;6.70
3136;DHT22;1578;47.658;9.922;2023-05-07T15:32:23;21.80;7.10
3136;DHT22;1578;47.658;9.922;2023-05-07T15:34:48;21.40;7.40
3136;DHT22;1578;47.658;9.922;2023-05-07T15:37:14;21.30;7.30
3136;DHT22;1578;47.658;9.922;2023-05-07T15:39:39;21.20;8.50
3136;DHT22;1578;47.658;9.922;2023-05-07T15:42:05;21.20;8.70
3136;DHT22;1578;47.658;9.922;2023-05-07T15:44:31;21.10;8.20
3136;DHT22;1578;47.658;9.922;2023-05-07T15:46:59;20.90;8.80
3136;DHT22;1578;47.658;9.922;2023-05-07T15:49:25;20.70;9.70
3136;DHT22;1578;47.658;9.922;2023-05-07T15:51:50;20.50;10.60
3136;DHT22;1578;47.658;9.922;2023-05-07T15:54:16;20.50;11.20
3136;DHT22;1578;47.658;9.922;2023-05-07T15:56:45;20.40;12.70
3136;DHT22;1578;47.658;9.922;2023-05-07T15:59:11;20.40;12.60
3136;DHT22;1578;47.658;9.922;2023-05-07T16:01:37;20.20;13.30
3136;DHT22;1578;47.658;9.922;2023-05-07T16:04:06;20.10;11.80
3136;DHT22;1578;47.658;9.922;2023-05-07T16:06:32;20.10;11.00
3136;DHT22;1578;47.658;9.922;2023-05-07T16:08:58;20.00;13.00
3136;DHT22;1578;47.658;9.922;2023-05-07T16:11:24;20.00;13.80
3136;DHT22;1578;47.658;9.922;2023-05-07T16:13:50;19.80;15.80
3136;DHT22;1578;47.658;9.922;2023-05-07T16:16:16;19.50;17.50
3136;DHT22;1578;47.658;9.922;2023-05-07T16:18:42;19.40;17.40
3136;DHT22;1578;47.658;9.922;2023-05-07T16:21:07;19.00;28.40
3136;DHT22;1578;47.658;9.922;2023-05-07T16:23:33;18.50;39.80